Time;durP1;ratioP1;P1;durP2;ratioP2;P2;SDS_P1;SDS_P2;PMS_P1;PMS_P2;Temp;Humidity;BMP_temperature;BMP_pressure;BME280_temperature;BME280_humidity;BME280_pressure;Samples;Min_cycle;Max_cycle;Signal;HPM_P1;HPM_P2
2023/04/10 00:00:44;;;;;;;12.18;7.68;;;7.40;99.90;;;;;;4950709;28;20104;-75
2023/04/10 00:03:10;;;;;;;10.93;6.85;;;7.40;99.90;;;;;;4944145;28;20118;-75
2023/04/10 00:05:36;;;;;;;11.35;7.22;;;7.40;99.90;;;;;;4944325;28;20172;-76
2023/04/10 00:08:02;;;;;;;12.40;6.97;;;7.40;99.90;;;;;;4949271;28;20066;-76
2023/04/10 00:10:31;;;;;;;11.77;7.18;;;7.40;99.90;;;;;;4951308;28;20095;-76
2023/04/10 00:12:57;;;;;;;11.95;7.22;;;7.40;99.90;;;;;;4946832;28;20031;-75
2023/04/10 00:15:23;;;;;;;12.65;7.63;;;7.40;99.90;;;;;;4964426;28;20027;-75
2023/04/10 00:17:53;;;;;;;11.38;7.07;;;7.30;99.90;;;;;;4950038;28;20027;-76
2023/04/10 00:20:22;;;;;;;10.35;6.90;;;7.30;99.90;;;;;;4947041;28;20032;-75
2023/04/10 00:22:48;;;;;;;11.48;6.70;;;7.30;99.90;;;;;;4951537;28;20058;-75
2023/04/10 00:25:14;;;;;;;12.57;7.68;;;7.30;99.90;;;;;;4951340;28;20039;-74
2023/04/10 00:27:42;;;;;;;13.20;7.85;;;7.30;99.90;;;;;;4952546;28;20170;-75
2023/04/10 00:30:08;;;;;;;11.85;7.00;;;7.30;99.90;;;;;;4952242;28;20036;-74
2023/04/10 00:32:34;;;;;;;12.98;7.55;;;7.20;99.90;;;;;;4950379;28;20533;-74
2023/04/10 00:35:00;;;;;;;13.40;7.75;;;7.20;99.90;;;;;;4949954;28;20030;-75
2023/04/10 00:37:26;;;;;;;12.23;7.72;;;7.20;99.90;;;;;;4951556;28;20026;-75
2023/04/10 00:39:51;;;;;;;15.02;7.82;;;7.20;99.90;;;;;;4944715;28;20027;-75
2023/04/10 00:42:20;;;;;;;10.45;7.10;;;7.10;99.90;;;;;;4952615;28;20023;-75
2023/04/10 00:44:46;;;;;;;11.48;7.68;;;7.10;99.90;;;;;;4949216;28;20023;-75
2023/04/10 00:47:12;;;;;;;13.38;7.65;;;7.10;99.90;;;;;;4946173;28;20031;-75
2023/04/10 00:49:39;;;;;;;13.32;7.97;;;7.00;99.90;;;;;;4959599;28;20027;-75
2023/04/10 00:52:11;;;;;;;13.75;8.07;;;7.10;99.90;;;;;;4945667;28;20027;-75
2023/04/10 00:54:37;;;;;;;11.05;7.35;;;7.00;99.90;;;;;;4963124;28;20028;-75
2023/04/10 00:57:06;;;;;;;12.45;7.30;;;7.00;99.90;;;;;;4952032;28;20036;-74
2023/04/10 00:59:35;;;;;;;13.75;8.05;;;6.90;99.90;;;;;;4950162;28;20121;-74
2023/04/10 01:02:01;;;;;;;12.25;7.30;;;6.90;99.90;;;;;;4950278;28;20031;-74
2023/04/10 01:04:28;;;;;;;11.45;7.03;;;6.80;99.90;;;;;;4945951;28;20134;-74
2023/04/10 01:07:20;;;;;;;11.32;6.97;;;6.80;99.90;;;;;;4953162;28;20425;-74
2023/04/10 01:10:16;;;;;;;11.10;7.03;;;6.70;99.90;;;;;;4951182;28;20163;-74
2023/04/10 01:13:19;;;;;;;9.73;6.47;;;6.80;99.90;;;;;;4949731;28;20110;-75
2023/04/10 01:16:09;;;;;;;11.02;6.25;;;6.70;99.90;;;;;;4947647;28;20050;-75
2023/04/10 01:18:38;;;;;;;12.32;7.60;;;6.70;99.90;;;;;;4952831;28;20031;-75
2023/04/10 01:21:08;;;;;;;12.70;7.47;;;6.70;99.90;;;;;;4951572;28;20038;-75
2023/04/10 01:23:42;;;;;;;11.73;7.43;;;6.60;99.90;;;;;;4950849;28;20468;-75
2023/04/10 01:26:18;;;;;;;10.48;6.40;;;6.60;99.90;;;;;;4967081;28;20504;-74
2023/04/10 01:28:50;;;;;;;13.45;7.78;;;6.60;99.90;;;;;;4952989;28;20031;-75
2023/04/10 01:31:28;;;;;;;12.02;7.30;;;6.50;99.90;;;;;;4966995;28;20417;-74
2023/04/10 01:34:03;;;;;;;13.82;7.47;;;6.50;99.90;;;;;;4966216;28;20034;-76
2023/04/10 01:36:43;;;;;;;9.48;6.07;;;6.40;99.90;;;;;;4952481;28;20023;-76
2023/04/10 01:39:10;;;;;;;11.60;6.47;;;6.40;99.90;;;;;;4951480;28;20058;-76
2023/04/10 01:41:37;;;;;;;10.20;6.57;;;6.40;99.90;;;;;;4953032;28;20354;-76
2023/04/10 01:44:04;;;;;;;15.85;7.72;;;6.40;99.90;;;;;;4952628;28;20035;-74
2023/04/10 01:46:31;;;;;;;13.57;7.25;;;6.40;99.90;;;;;;4950927;28;20117;-75
2023/04/10 01:49:01;;;;;;;9.52;6.40;;;6.30;99.90;;;;;;4950925;28;20027;-76
2023/04/10 01:51:28;;;;;;;12.55;7.63;;;6.30;99.90;;;;;;4952290;28;20484;-75
2023/04/10 01:53:57;;;;;;;10.60;6.25;;;6.20;99.90;;;;;;4951925;28;20031;-75
2023/04/10 01:56:27;;;;;;;11.10;6.32;;;6.20;99.90;;;;;;4953896;28;20096;-76
2023/04/10 01:58:59;;;;;;;12.23;7.80;;;6.20;99.90;;;;;;4948663;28;20027;-74
2023/04/10 02:01:25;;;;;;;12.20;7.15;;;6.20;99.90;;;;;;4969410;28;20019;-76
2023/04/10 02:03:58;;;;;;;11.80;6.82;;;6.10;99.90;;;;;;4951719;28;23492;-76
2023/04/10 02:06:47;;;;;;;10.65;6.80;;;6.10;99.90;;;;;;4952527;28;20964;-75
2023/04/10 02:09:44;;;;;;;10.00;6.38;;;6.10;99.90;;;;;;4952320;28;20037;-76
2023/04/10 02:12:21;;;;;;;10.88;6.70;;;6.10;99.90;;;;;;4951146;28;20036;-74
2023/04/10 02:14:48;;;;;;;12.63;7.10;;;6.10;99.90;;;;;;4948862;28;20078;-77
2023/04/10 02:17:27;;;;;;;10.05;6.50;;;6.10;99.90;;;;;;4948052;28;20133;-76
2023/04/10 02:19:54;;;;;;;11.10;6.88;;;6.00;99.90;;;;;;4951178;28;20102;-74
2023/04/10 02:22:21;;;;;;;11.30;6.97;;;6.00;99.90;;;;;;4949702;28;20024;-75
2023/04/10 02:24:48;;;;;;;11.23;6.20;;;5.90;99.90;;;;;;4947492;28;20045;-76
2023/04/10 02:27:15;;;;;;;12.60;6.72;;;6.00;99.90;;;;;;4944326;28;20489;-76
2023/04/10 02:29:47;;;;;;;10.60;6.30;;;6.00;99.90;;;;;;4945866;28;20024;-76
2023/04/10 02:32:12;;;;;;;11.25;7.00;;;6.00;99.90;;;;;;4951111;28;20126;-74
2023/04/10 02:34:38;;;;;;;11.88;6.80;;;5.90;99.90;;;;;;4950559;28;20102;-75
2023/04/10 02:37:03;;;;;;;11.43;7.18;;;5.90;99.90;;;;;;4951945;28;20022;-76
2023/04/10 02:39:29;;;;;;;11.07;6.43;;;5.90;99.90;;;;;;4951561;28;20050;-76
2023/04/10 02:41:55;;;;;;;11.07;6.82;;;5.90;99.90;;;;;;4952173;28;20031;-75
2023/04/10 02:44:21;;;;;;;9.13;6.03;;;5.90;99.90;;;;;;4954581;28;20038;-75
2023/04/10 02:46:46;;;;;;;12.05;6.72;;;5.80;99.90;;;;;;4948471;28;20123;-75
2023/04/10 02:49:12;;;;;;;11.63;6.80;;;5.90;99.90;;;;;;4943522;28;20134;-75
2023/04/10 02:51:38;;;;;;;9.75;5.90;;;5.80;99.90;;;;;;4948905;28;20058;-76
2023/04/10 02:54:03;;;;;;;10.27;6.70;;;5.80;99.90;;;;;;4955389;28;20408;-75
2023/04/10 02:56:38;;;;;;;12.65;6.82;;;5.80;99.90;;;;;;4950772;28;20031;-76
2023/04/10 02:59:04;;;;;;;11.82;7.43;;;5.80;99.90;;;;;;4949300;28;20031;-75
2023/04/10 03:01:29;;;;;;;11.55;6.78;;;5.80;99.90;;;;;;4954144;28;20042;-75
2023/04/10 03:03:58;;;;;;;11.63;6.97;;;5.80;99.90;;;;;;4949886;28;20392;-75
2023/04/10 03:06:26;;;;;;;10.82;6.45;;;5.80;99.90;;;;;;4963919;28;20110;-75
2023/04/10 03:08:52;;;;;;;12.63;6.70;;;5.70;99.90;;;;;;4963284;28;20853;-76
2023/04/10 03:11:21;;;;;;;10.00;6.15;;;5.70;99.90;;;;;;4947972;28;20027;-75
2023/04/10 03:13:47;;;;;;;10.65;6.30;;;5.70;99.90;;;;;;4955361;28;20035;-75
2023/04/10 03:16:13;;;;;;;11.93;6.43;;;5.70;99.90;;;;;;4952259;28;20031;-75
2023/04/10 03:18:39;;;;;;;9.82;6.00;;;5.70;99.90;;;;;;4951999;28;20432;-75
2023/04/10 03:21:08;;;;;;;12.20;7.30;;;5.60;99.90;;;;;;4950252;28;20031;-76
2023/04/10 03:23:33;;;;;;;11.77;6.53;;;5.60;99.90;;;;;;4947857;28;20011;-75
2023/04/10 03:26:03;;;;;;;10.23;6.18;;;5.60;99.90;;;;;;4944962;28;20361;-75
2023/04/10 03:28:38;;;;;;;13.27;7.18;;;5.60;99.90;;;;;;4947184;28;20489;-75
2023/04/10 03:31:07;;;;;;;13.52;8.13;;;5.50;99.90;;;;;;4948650;28;20088;-75
2023/04/10 03:33:32;;;;;;;12.52;7.43;;;5.50;99.90;;;;;;4951363;28;20083;-75
2023/04/10 03:36:01;;;;;;;13.77;7.60;;;5.50;99.90;;;;;;4945933;28;20031;-76
2023/04/10 03:38:26;;;;;;;13.00;7.57;;;5.50;99.90;;;;;;4952270;28;20094;-75
2023/04/10 03:40:52;;;;;;;12.48;6.95;;;5.40;99.90;;;;;;4945508;28;20166;-75
2023/04/10 03:43:18;;;;;;;12.38;8.25;;;5.30;99.90;;;;;;4954101;28;20031;-75
2023/04/10 03:45:47;;;;;;;13.07;8.00;;;5.30;99.90;;;;;;4947474;28;20081;-76
2023/04/10 03:48:12;;;;;;;14.45;7.72;;;5.30;99.90;;;;;;4952892;28;20102;-76
2023/04/10 03:50:38;;;;;;;14.90;7.60;;;5.30;99.90;;;;;;4962750;28;20123;-76
2023/04/10 03:53:04;;;;;;;11.75;7.07;;;5.20;99.90;;;;;;4953020;28;20218;-76
2023/04/10 03:55:29;;;;;;;13.52;7.50;;;5.20;99.90;;;;;;4945924;28;20392;-75
2023/04/10 03:57:55;;;;;;;13.10;7.38;;;5.10;99.90;;;;;;4954468;28;20101;-76
2023/04/10 04:00:21;;;;;;;15.75;8.52;;;5.10;99.90;;;;;;4952931;28;20031;-75
2023/04/10 04:02:50;;;;;;;14.82;8.45;;;5.10;99.90;;;;;;4955524;28;20489;-75
2023/04/10 04:05:17;;;;;;;14.15;8.13;;;5.10;99.90;;;;;;4946704;28;20063;-75
2023/04/10 04:07:42;;;;;;;12.43;7.50;;;5.00;99.90;;;;;;4944566;28;20035;-75
2023/04/10 04:10:08;;;;;;;15.10;8.63;;;5.00;99.90;;;;;;4947578;28;20035;-75
2023/04/10 04:12:34;;;;;;;12.55;7.60;;;4.90;99.90;;;;;;4959926;28;20391;-75
2023/04/10 04:14:59;;;;;;;11.32;7.18;;;4.90;99.90;;;;;;4939403;28;20027;-75
2023/04/10 04:17:25;;;;;;;12.65;7.30;;;4.90;99.90;;;;;;4948144;28;20027;-75
2023/04/10 04:19:50;;;;;;;14.32;7.65;;;4.90;99.90;;;;;;4947681;28;20038;-75
2023/04/10 04:22:16;;;;;;;12.75;7.00;;;4.80;99.90;;;;;;4950543;28;20688;-75
2023/04/10 04:24:42;;;;;;;17.67;8.32;;;4.90;99.90;;;;;;4946898;28;20031;-73
2023/04/10 04:27:08;;;;;;;15.93;8.00;;;4.90;99.90;;;;;;4954399;29;20067;-72
2023/04/10 04:29:33;;;;;;;15.02;8.60;;;4.90;99.90;;;;;;4965021;28;20038;-73
2023/04/10 04:31:59;;;;;;;12.82;8.05;;;4.80;99.90;;;;;;4973502;28;20050;-72
2023/04/10 04:34:27;;;;;;;18.30;9.40;;;4.80;99.90;;;;;;4972045;28;20045;-73
2023/04/10 04:36:53;;;;;;;20.08;9.48;;;4.80;99.90;;;;;;4973207;28;20062;-72
2023/04/10 04:39:22;;;;;;;15.77;8.95;;;4.80;99.90;;;;;;4973199;28;20144;-72
2023/04/10 04:41:48;;;;;;;16.50;8.68;;;4.80;99.90;;;;;;4966089;28;20107;-73
2023/04/10 04:44:13;;;;;;;13.52;8.15;;;4.80;99.90;;;;;;4949656;28;20119;-73
2023/04/10 04:46:39;;;;;;;15.07;8.77;;;4.80;99.90;;;;;;4934634;29;20032;-73
2023/04/10 04:49:04;;;;;;;15.25;8.55;;;4.80;99.90;;;;;;4971952;28;20023;-73
2023/04/10 04:51:30;;;;;;;15.32;8.20;;;4.70;99.90;;;;;;4972365;28;20535;-72
2023/04/10 04:53:58;;;;;;;14.73;8.68;;;4.60;99.90;;;;;;4970430;28;20220;-74
2023/04/10 04:56:24;;;;;;;12.32;7.47;;;4.60;99.90;;;;;;4959631;28;20022;-72
2023/04/10 04:58:50;;;;;;;14.23;8.25;;;4.60;99.90;;;;;;4959376;28;20460;-74
2023/04/10 05:01:16;;;;;;;15.30;8.65;;;4.60;99.90;;;;;;4965888;28;20031;-73
2023/04/10 05:03:42;;;;;;;13.13;7.85;;;4.60;99.90;;;;;;4955255;28;20035;-74
2023/04/10 05:06:11;;;;;;;14.43;7.70;;;4.60;99.90;;;;;;4956745;28;20042;-74
2023/04/10 05:08:36;;;;;;;12.63;7.85;;;4.60;99.90;;;;;;4970911;28;20026;-73
2023/04/10 05:11:02;;;;;;;14.77;8.77;;;4.60;99.90;;;;;;4965586;28;20504;-73
2023/04/10 05:13:27;;;;;;;13.93;8.73;;;4.60;99.90;;;;;;4953267;28;20031;-73
2023/04/10 05:15:53;;;;;;;14.68;8.65;;;4.60;99.90;;;;;;4959668;28;20023;-74
2023/04/10 05:18:22;;;;;;;16.73;9.05;;;4.70;99.90;;;;;;4954300;28;20030;-73
2023/04/10 05:20:48;;;;;;;14.95;8.50;;;4.70;99.90;;;;;;4954136;28;20026;-73
2023/04/10 05:23:14;;;;;;;13.88;7.93;;;4.70;99.90;;;;;;4952596;28;20027;-73
2023/04/10 05:25:40;;;;;;;13.00;8.05;;;4.80;99.90;;;;;;4953497;28;20125;-73
2023/04/10 05:28:06;;;;;;;14.05;7.90;;;4.80;99.90;;;;;;4965452;28;20102;-73
2023/04/10 05:30:32;;;;;;;13.43;8.18;;;4.90;99.90;;;;;;4971824;28;20042;-73
2023/04/10 05:32:58;;;;;;;13.52;8.07;;;4.90;99.90;;;;;;4970221;28;20485;-73
2023/04/10 05:35:26;;;;;;;14.23;8.32;;;5.00;99.90;;;;;;4965269;28;20023;-74
2023/04/10 05:37:52;;;;;;;15.48;8.07;;;5.10;99.90;;;;;;4967720;28;20051;-74
2023/04/10 05:40:18;;;;;;;15.32;8.90;;;5.20;99.90;;;;;;4971644;28;20081;-73
2023/04/10 05:42:43;;;;;;;14.32;8.77;;;5.20;99.90;;;;;;4969003;28;20023;-74
2023/04/10 05:45:09;;;;;;;15.15;8.57;;;5.30;99.90;;;;;;4958683;28;20028;-73
2023/04/10 05:47:35;;;;;;;15.52;8.38;;;5.40;99.90;;;;;;4952484;28;20149;-73
2023/04/10 05:50:01;;;;;;;14.25;8.65;;;5.40;99.90;;;;;;4963341;28;20043;-73
2023/04/10 05:52:26;;;;;;;13.13;7.45;;;5.40;99.90;;;;;;4963817;28;20083;-73
2023/04/10 05:54:52;;;;;;;14.57;8.23;;;5.50;99.90;;;;;;4952610;28;20481;-72
2023/04/10 05:57:20;;;;;;;14.02;8.57;;;5.50;99.90;;;;;;4947475;28;20158;-72
2023/04/10 05:59:46;;;;;;;14.60;8.15;;;5.60;99.90;;;;;;4949809;28;20039;-72
2023/04/10 06:02:12;;;;;;;13.05;8.57;;;5.70;99.90;;;;;;4949806;28;20031;-72
2023/04/10 06:04:37;;;;;;;13.75;8.02;;;5.70;99.90;;;;;;4951809;28;20023;-74
2023/04/10 06:07:03;;;;;;;13.27;8.13;;;5.80;99.90;;;;;;4945121;28;20461;-74
2023/04/10 06:09:28;;;;;;;16.83;7.78;;;5.90;99.90;;;;;;4954733;28;20091;-74
2023/04/10 06:11:55;;;;;;;13.15;8.00;;;5.90;99.90;;;;;;4957843;28;20445;-74
2023/04/10 06:14:22;;;;;;;13.50;8.23;;;6.00;99.90;;;;;;4959661;28;20031;-74
2023/04/10 06:16:47;;;;;;;14.05;7.70;;;6.00;99.90;;;;;;4952364;28;20027;-74
2023/04/10 06:19:13;;;;;;;13.63;7.97;;;6.10;99.90;;;;;;4961573;28;20447;-74
2023/04/10 06:21:39;;;;;;;12.05;7.72;;;6.20;99.90;;;;;;4955469;28;20099;-74
2023/04/10 06:24:05;;;;;;;16.70;9.07;;;6.20;99.90;;;;;;4964168;28;20360;-73
2023/04/10 06:26:30;;;;;;;16.67;8.25;;;6.20;99.90;;;;;;4949963;28;20035;-74
2023/04/10 06:28:56;;;;;;;14.40;8.68;;;6.30;99.90;;;;;;4954512;28;20097;-72
2023/04/10 06:31:23;;;;;;;11.95;8.13;;;6.30;99.90;;;;;;4956747;28;20042;-72
2023/04/10 06:33:49;;;;;;;12.52;8.00;;;6.30;99.90;;;;;;4970564;28;20039;-74
2023/04/10 06:36:15;;;;;;;13.95;8.18;;;6.30;99.90;;;;;;4953504;28;20030;-74
2023/04/10 06:38:41;;;;;;;12.68;7.80;;;6.40;99.90;;;;;;4955005;28;20027;-73
2023/04/10 06:41:10;;;;;;;14.27;8.45;;;6.40;99.90;;;;;;4958848;28;20030;-73
2023/04/10 06:43:37;;;;;;;13.60;7.93;;;6.50;99.90;;;;;;4959794;28;20111;-73
2023/04/10 06:46:06;;;;;;;12.10;7.72;;;6.50;99.90;;;;;;4972837;28;20078;-73
2023/04/10 06:48:32;;;;;;;13.15;7.88;;;6.50;99.90;;;;;;4958495;28;20113;-72
2023/04/10 06:50:59;;;;;;;11.85;7.75;;;6.60;99.90;;;;;;4973730;28;20547;-72
2023/04/10 06:53:25;;;;;;;12.25;8.00;;;6.50;99.90;;;;;;4961828;28;20046;-72
2023/04/10 06:55:51;;;;;;;12.88;7.88;;;6.60;99.90;;;;;;4954733;29;20390;-72
2023/04/10 06:58:17;;;;;;;13.75;7.53;;;6.60;99.90;;;;;;4968243;28;20054;-72
2023/04/10 07:00:42;;;;;;;13.27;7.68;;;6.70;99.90;;;;;;4974081;28;20023;-73
2023/04/10 07:03:08;;;;;;;12.82;7.88;;;6.70;99.90;;;;;;4962194;28;20027;-73
2023/04/10 07:05:37;;;;;;;13.52;8.50;;;6.80;99.90;;;;;;4954448;28;20134;-72
2023/04/10 07:08:03;;;;;;;14.43;7.90;;;6.80;99.90;;;;;;4965954;28;20039;-73
2023/04/10 07:10:34;;;;;;;18.10;9.45;;;6.90;99.90;;;;;;4968942;28;20023;-72
2023/04/10 07:13:00;;;;;;;13.93;8.30;;;7.00;99.90;;;;;;4958440;28;20023;-73
2023/04/10 07:15:26;;;;;;;15.57;8.55;;;7.20;99.90;;;;;;4960960;28;20057;-73
2023/04/10 07:17:52;;;;;;;14.35;8.50;;;7.30;99.90;;;;;;4973513;28;20062;-72
2023/04/10 07:20:17;;;;;;;12.45;6.65;;;7.40;99.90;;;;;;4960597;28;20455;-73
2023/04/10 07:22:43;;;;;;;9.18;5.60;;;7.60;99.90;;;;;;4954148;28;20537;-73
2023/04/10 07:25:09;;;;;;;7.47;4.53;;;7.70;99.90;;;;;;4966819;28;20388;-73
2023/04/10 07:27:34;;;;;;;9.48;4.05;;;7.90;99.90;;;;;;4965541;28;20114;-73
2023/04/10 07:30:03;;;;;;;6.18;3.88;;;8.10;99.90;;;;;;4960496;28;20477;-72
2023/04/10 07:32:29;;;;;;;5.22;3.40;;;8.30;98.90;;;;;;4969670;28;20413;-73
2023/04/10 07:34:54;;;;;;;5.50;3.55;;;8.40;98.30;;;;;;4952592;28;20033;-73
2023/04/10 07:37:20;;;;;;;4.80;3.03;;;8.60;97.70;;;;;;4952770;28;20135;-74
2023/04/10 07:39:46;;;;;;;7.68;3.45;;;8.80;97.30;;;;;;4953762;28;20023;-73
2023/04/10 07:42:12;;;;;;;4.32;3.10;;;9.00;96.70;;;;;;4953988;28;20035;-74
2023/04/10 07:44:38;;;;;;;4.95;2.35;;;9.10;96.10;;;;;;4961450;28;20023;-74
2023/04/10 07:47:03;;;;;;;5.63;3.40;;;9.30;95.40;;;;;;4973124;28;20023;-74
2023/04/10 07:49:29;;;;;;;4.88;2.63;;;9.50;93.90;;;;;;4971536;28;20027;-74
2023/04/10 07:51:58;;;;;;;4.15;2.63;;;9.70;93.90;;;;;;4972833;28;20022;-74
2023/04/10 07:54:24;;;;;;;4.43;2.67;;;9.80;93.10;;;;;;4972653;28;20033;-74
2023/04/10 07:56:52;;;;;;;4.05;2.70;;;10.00;92.80;;;;;;4964723;28;20361;-74
2023/04/10 07:59:17;;;;;;;4.10;2.42;;;10.20;91.20;;;;;;4957067;28;20018;-74
2023/04/10 08:01:52;;;;;;;5.38;2.83;;;10.30;91.50;;;;;;4953901;28;20110;-74
2023/04/10 08:04:18;;;;;;;3.80;2.42;;;10.40;91.10;;;;;;4951872;28;20128;-72
2023/04/10 08:06:48;;;;;;;4.18;2.60;;;10.50;90.70;;;;;;4951936;29;20027;-72
2023/04/10 08:09:14;;;;;;;4.20;2.67;;;10.60;90.30;;;;;;4953654;28;20057;-71
2023/04/10 08:11:40;;;;;;;3.88;2.50;;;10.80;90.00;;;;;;4952096;29;20163;-72
2023/04/10 08:14:14;;;;;;;4.60;2.40;;;10.80;89.30;;;;;;4953094;28;20102;-72
2023/04/10 08:16:46;;;;;;;4.75;2.88;;;11.00;88.70;;;;;;4969810;28;20023;-74
2023/04/10 08:19:21;;;;;;;5.55;3.03;;;11.10;88.30;;;;;;4972549;28;20023;-75
2023/04/10 08:21:49;;;;;;;4.13;2.40;;;11.20;86.80;;;;;;4967025;28;20059;-71
2023/04/10 08:24:18;;;;;;;3.03;2.05;;;11.30;86.20;;;;;;4971547;28;20092;-75
2023/04/10 08:26:50;;;;;;;3.15;2.38;;;11.40;85.50;;;;;;4971012;28;20392;-72
2023/04/10 08:29:15;;;;;;;3.75;2.53;;;11.40;85.40;;;;;;4954887;28;20035;-74
2023/04/10 08:31:41;;;;;;;3.33;2.38;;;11.60;85.10;;;;;;4959703;28;20034;-73
2023/04/10 08:34:09;;;;;;;2.92;2.20;;;11.60;84.10;;;;;;4959902;28;20054;-72
2023/04/10 08:36:35;;;;;;;3.38;2.13;;;11.70;82.30;;;;;;4947440;28;20131;-76
2023/04/10 08:39:01;;;;;;;3.70;2.03;;;11.80;83.50;;;;;;4951772;28;20508;-70
2023/04/10 08:41:27;;;;;;;5.50;2.05;;;12.00;81.60;;;;;;4952847;28;20031;-71
2023/04/10 08:43:56;;;;;;;3.35;2.30;;;12.00;80.70;;;;;;4952783;28;20043;-73
2023/04/10 08:46:24;;;;;;;2.33;1.75;;;12.20;79.40;;;;;;4951402;28;20023;-73
2023/04/10 08:49:14;;;;;;;3.05;2.08;;;12.30;78.60;;;;;;4967451;28;20027;-73
2023/04/10 08:51:50;;;;;;;2.50;1.63;;;12.50;77.90;;;;;;4959302;28;20031;-73
2023/04/10 08:54:31;;;;;;;2.85;2.10;;;12.50;77.60;;;;;;4952606;28;20058;-73
2023/04/10 08:56:59;;;;;;;2.65;1.90;;;12.60;77.50;;;;;;4955529;28;20038;-73
2023/04/10 08:59:28;;;;;;;2.88;1.75;;;12.70;77.10;;;;;;4953196;28;20039;-73
2023/04/10 09:01:57;;;;;;;2.58;1.77;;;12.70;76.10;;;;;;4969645;28;20030;-73
2023/04/10 09:04:26;;;;;;;2.85;1.95;;;12.70;76.00;;;;;;4971918;28;20031;-72
2023/04/10 09:07:03;;;;;;;2.45;1.83;;;12.80;75.70;;;;;;4960739;28;20028;-70
2023/04/10 09:09:31;;;;;;;2.67;1.75;;;12.80;73.90;;;;;;4963618;28;20035;-73
2023/04/10 09:12:07;;;;;;;3.38;1.60;;;12.90;74.50;;;;;;4951198;28;20097;-73
2023/04/10 09:14:34;;;;;;;2.40;1.70;;;13.00;71.90;;;;;;4952713;28;20086;-73
2023/04/10 09:17:22;;;;;;;3.30;2.25;;;13.00;72.80;;;;;;4959302;28;20094;-73
2023/04/10 09:19:54;;;;;;;3.10;2.00;;;13.10;72.90;;;;;;4952773;28;20111;-74
2023/04/10 09:22:39;;;;;;;2.50;1.73;;;13.20;72.00;;;;;;4969664;28;20483;-72
2023/04/10 09:25:06;;;;;;;2.60;1.70;;;13.40;70.60;;;;;;4971840;28;20023;-73
2023/04/10 09:27:37;;;;;;;2.25;1.55;;;13.40;71.80;;;;;;4964205;28;20032;-73
2023/04/10 09:30:03;;;;;;;2.92;1.88;;;13.50;70.40;;;;;;4952544;28;20066;-70
2023/04/10 09:32:45;;;;;;;2.55;1.63;;;13.70;69.20;;;;;;4967491;28;20476;-73
2023/04/10 09:35:15;;;;;;;2.50;1.75;;;13.80;68.30;;;;;;4974073;28;20077;-76
2023/04/10 09:37:43;;;;;;;2.90;1.75;;;13.90;67.70;;;;;;4975628;28;20325;-76
2023/04/10 09:40:25;;;;;;;3.05;2.05;;;14.00;67.50;;;;;;4975943;28;20019;-74
2023/04/10 09:42:51;;;;;;;2.38;1.60;;;14.00;66.70;;;;;;4975832;28;20053;-76
2023/04/10 09:45:19;;;;;;;2.53;1.63;;;14.20;66.30;;;;;;4975597;28;20030;-76
2023/04/10 09:48:08;;;;;;;4.10;1.55;;;14.20;64.80;;;;;;4990198;28;20085;-75
2023/04/10 09:50:39;;;;;;;2.45;1.50;;;14.30;63.10;;;;;;4967780;28;20069;-74
2023/04/10 09:53:06;;;;;;;2.13;1.38;;;14.40;62.80;;;;;;4990100;28;20099;-75
2023/04/10 09:55:35;;;;;;;1.98;1.30;;;14.40;62.20;;;;;;4975180;28;20109;-73
2023/04/10 09:58:04;;;;;;;1.58;1.10;;;14.40;61.10;;;;;;4975180;28;20026;-74
2023/04/10 10:00:30;;;;;;;2.08;1.10;;;14.50;60.90;;;;;;4974933;28;20106;-75
2023/04/10 10:02:59;;;;;;;1.98;1.27;;;14.60;60.70;;;;;;4989738;28;20038;-74
2023/04/10 10:05:29;;;;;;;2.35;1.30;;;14.60;58.80;;;;;;4989843;28;20487;-75
2023/04/10 10:07:56;;;;;;;2.88;1.30;;;14.70;59.60;;;;;;4975509;28;20054;-75
2023/04/10 10:10:23;;;;;;;1.83;1.25;;;14.80;59.00;;;;;;4974887;28;20023;-75
2023/04/10 10:12:53;;;;;;;2.10;1.33;;;14.80;58.00;;;;;;4974668;28;20034;-73
2023/04/10 10:15:34;;;;;;;2.53;1.40;;;14.90;57.70;;;;;;4974442;28;20023;-73
2023/04/10 10:18:28;;;;;;;1.35;1.05;;;14.90;57.70;;;;;;4989149;28;20114;-74
2023/04/10 10:20:54;;;;;;;;;;;15.00;55.30;;;;;;4973942;28;20023;-73
2023/04/10 10:23:21;;;;;;;3.25;1.40;;;15.00;54.50;;;;;;4986430;28;19910;-73
2023/04/10 10:25:48;;;;;;;2.05;1.40;;;15.10;54.90;;;;;;5000411;23;20030;-74
2023/04/10 10:28:14;;;;;;;1.50;1.10;;;15.10;54.70;;;;;;5012362;28;20030;-74
2023/04/10 10:30:47;;;;;;;2.03;1.33;;;15.20;54.40;;;;;;5010637;28;20026;-76
2023/04/10 10:33:24;;;;;;;2.80;1.45;;;15.20;54.00;;;;;;5016537;28;20037;-76
2023/04/10 10:35:59;;;;;;;1.92;1.02;;;15.20;52.90;;;;;;5010001;28;20098;-77
2023/04/10 10:38:26;;;;;;;1.98;0.90;;;15.20;52.10;;;;;;4996630;28;20041;-75
2023/04/10 10:40:56;;;;;;;2.67;1.20;;;15.20;52.30;;;;;;4948175;28;20065;-76
2023/04/10 10:44:00;;;;;;;1.23;1.00;;;15.20;52.40;;;;;;4974057;28;20087;-77
2023/04/10 10:47:03;;;;;;;1.58;1.02;;;15.20;52.20;;;;;;4974407;28;20037;-75
2023/04/10 10:49:54;;;;;;;1.48;1.15;;;15.30;51.90;;;;;;4970701;28;20031;-75
2023/04/10 10:52:38;;;;;;;1.63;0.98;;;15.30;52.00;;;;;;4971216;28;20398;-75
2023/04/10 10:55:37;;;;;;;1.33;0.90;;;15.30;51.80;;;;;;4980176;28;20031;-74
2023/04/10 10:58:05;;;;;;;1.83;1.00;;;15.40;52.30;;;;;;4987792;28;20023;-76
2023/04/10 11:01:00;;;;;;;1.90;1.35;;;15.50;53.00;;;;;;4975207;28;20019;-76
2023/04/10 11:03:32;;;;;;;3.13;1.80;;;15.60;51.50;;;;;;4935997;28;20054;-76
2023/04/10 11:06:08;;;;;;;1.35;1.00;;;15.70;50.80;;;;;;4994120;28;20111;-76
2023/04/10 11:08:42;;;;;;;2.15;1.48;;;15.70;50.40;;;;;;4976545;28;20514;-79
2023/04/10 11:11:09;;;;;;;3.22;1.70;;;15.80;51.30;;;;;;4978595;28;20026;-76
2023/04/10 11:13:41;;;;;;;1.90;1.27;;;15.80;51.40;;;;;;4973690;28;20143;-76
2023/04/10 11:16:12;;;;;;;1.98;1.33;;;15.90;51.70;;;;;;4973172;28;20034;-75
2023/04/10 11:18:50;;;;;;;3.45;1.38;;;15.90;52.10;;;;;;4971536;28;20027;-75
2023/04/10 11:21:16;;;;;;;1.98;1.20;;;15.90;51.10;;;;;;4974911;28;20027;-74
2023/04/10 11:23:57;;;;;;;2.63;1.38;;;16.00;51.60;;;;;;4974034;28;20158;-75
2023/04/10 11:26:48;;;;;;;2.03;1.33;;;16.00;51.50;;;;;;4972213;28;20041;-73
2023/04/10 11:29:17;;;;;;;2.53;1.20;;;16.10;49.50;;;;;;4975199;28;20038;-76
2023/04/10 11:31:44;;;;;;;1.70;1.08;;;16.10;50.10;;;;;;4976535;28;20057;-76
2023/04/10 11:34:11;;;;;;;2.10;1.30;;;16.20;50.20;;;;;;4990388;28;20067;-77
2023/04/10 11:36:43;;;;;;;2.10;1.10;;;16.20;49.90;;;;;;4974937;28;20042;-74
2023/04/10 11:39:30;;;;;;;1.80;1.08;;;16.20;49.60;;;;;;4972357;28;20027;-74
2023/04/10 11:42:01;;;;;;;2.22;1.38;;;16.20;49.10;;;;;;4939561;28;20105;-75
2023/04/10 11:44:38;;;;;;;2.40;1.50;;;16.10;49.60;;;;;;4995596;28;20407;-75
2023/04/10 11:47:04;;;;;;;2.17;1.50;;;16.10;50.10;;;;;;5005174;28;20038;-74
2023/04/10 11:49:31;;;;;;;1.75;1.08;;;16.10;49.30;;;;;;4992938;28;20049;-73
2023/04/10 11:52:03;;;;;;;1.63;1.20;;;16.10;49.30;;;;;;4993362;28;20076;-74
2023/04/10 11:54:47;;;;;;;1.63;1.20;;;16.10;50.80;;;;;;5015729;28;20360;-77
2023/04/10 11:57:16;;;;;;;;;;;16.30;51.90;;;;;;5001630;28;20023;-78
2023/04/10 12:00:03;;;;;;;1.73;1.05;;;16.30;52.70;;;;;;5003245;28;20307;-80
2023/04/10 12:02:28;;;;;;;2.38;1.15;;;16.40;50.30;;;;;;4998204;28;20034;-74
2023/04/10 12:04:57;;;;;;;4.38;1.55;;;16.40;50.80;;;;;;5008522;28;20038;-73
2023/04/10 12:09:57;;;;;;;2.08;1.30;;;16.70;51.40;;;;;;5066416;28;20411;-76
2023/04/10 12:12:35;;;;;;;1.85;1.10;;;16.70;48.60;;;;;;5065510;28;20021;-75
2023/04/10 12:15:02;;;;;;;3.10;1.70;;;16.60;49.50;;;;;;5063099;28;20567;-73
2023/04/10 12:17:27;;;;;;;2.33;1.50;;;16.60;49.90;;;;;;5057897;28;20021;-73
2023/04/10 12:19:53;;;;;;;2.10;1.48;;;16.60;50.40;;;;;;5054182;28;20061;-73
2023/04/10 12:22:19;;;;;;;2.38;1.65;;;16.50;51.30;;;;;;5058199;28;20342;-73
2023/04/10 12:24:46;;;;;;;2.58;1.52;;;16.50;51.30;;;;;;5056527;28;20025;-73
2023/04/10 12:27:18;;;;;;;3.03;1.80;;;16.50;50.70;;;;;;5061146;28;20108;-73
2023/04/10 12:29:45;;;;;;;7.43;2.40;;;16.50;51.30;;;;;;5062166;28;20465;-73
2023/04/10 12:32:12;;;;;;;2.28;1.45;;;16.50;51.60;;;;;;5057146;28;20021;-75
2023/04/10 12:34:38;;;;;;;3.45;1.98;;;16.50;52.80;;;;;;5056739;28;20036;-77
2023/04/10 12:37:04;;;;;;;3.67;2.10;;;16.60;53.50;;;;;;5056223;28;20025;-76
2023/04/10 12:39:30;;;;;;;3.22;1.67;;;16.60;52.50;;;;;;5056358;28;20473;-76
2023/04/10 12:42:16;;;;;;;7.88;2.63;;;16.70;52.00;;;;;;5058221;28;21049;-77
2023/04/10 12:44:56;;;;;;;7.28;2.70;;;16.80;51.80;;;;;;5062393;28;20025;-77
2023/04/10 12:47:23;;;;;;;9.45;2.60;;;16.80;52.50;;;;;;5051949;28;20109;-73
2023/04/10 12:50:09;;;;;;;2.20;1.45;;;16.80;53.10;;;;;;5055152;28;20116;-76
2023/04/10 12:52:36;;;;;;;2.72;1.63;;;16.80;52.20;;;;;;5062943;28;20091;-76
2023/04/10 12:55:18;;;;;;;5.72;1.60;;;16.90;52.40;;;;;;5053611;28;20426;-77
2023/04/10 12:57:46;;;;;;;2.88;1.73;;;16.90;51.30;;;;;;5059177;28;20027;-74
2023/04/10 13:00:14;;;;;;;3.03;1.67;;;16.90;51.40;;;;;;5059129;28;20024;-77
2023/04/10 13:02:40;;;;;;;2.97;1.48;;;17.00;52.10;;;;;;5057430;28;20135;-75